UUDD/DME METAR and TAF weather

Enter ICAO airport designator
Station Type Date Time Source
UUDD METAR 2021/09/23 23:00 UTC NOAA

UUDD 232300Z 16003MPS 9999 OVC006 08/07 Q1007 R14R/190050 NOSIG


Station Type Date Time Source
UUDD Decoded METAR 2021/09/23 23:00 UTC NOAA

Moscow / Domodedovo, Russia (UUDD) 55-24N 037-54E
Sep 23, 2021 - 07:00 PM EDT / 2021.09.23 2300 UTC
Wind: from the SSE (160 degrees) at 7 MPH (6 KT):0
Visibility: greater than 7 mile(s):0
Sky conditions: overcast
Temperature: 46 F (8 C)
Dew Point: 44 F (7 C)
Relative Humidity: 93%
Pressure (altimeter): 29.74 in. Hg (1007 hPa)
ob: UUDD 232300Z 16003MPS 9999 OVC006 08/07 Q1007 R14R/190050 NOSIG
cycle: 23

Station Type Date Time Source
UUDD TAF 2021/09/23 21:22 UTC NOAA

TAF UUDD 231952Z 2321/2503 15003G08MPS 6000 FEW002 BKN007 TX11/2412Z TN05/2403Z
TEMPO 2321/2405 0300 FG OVC002
BECMG 2405/2407 16008G13MPS

Example: see airport list